createdAt,value
2022-08-05T00:00:55.821Z,71.55
2022-08-05T00:01:56.822Z,71.55
2022-08-05T00:02:56.807Z,72.05
2022-08-05T00:03:57.089Z,72.08
2022-08-05T00:04:56.144Z,71.35
2022-08-05T00:06:06.384Z,71.35
2022-08-05T00:06:56.721Z,71.45
2022-08-05T00:08:00.319Z,71.85
2022-08-05T00:08:56.702Z,71.55
2022-08-05T00:09:55.681Z,71.95
2022-08-05T00:10:55.695Z,72.15
2022-08-05T00:11:59.815Z,72.78
2022-08-05T00:12:56.990Z,72.85
2022-08-05T00:13:55.645Z,73.08
2022-08-05T00:14:55.638Z,73.28
2022-08-05T00:16:00.167Z,73.18
2022-08-05T00:16:55.631Z,73.32
2022-08-05T00:17:55.627Z,73.91
2022-08-05T00:18:55.603Z,73.61
2022-08-05T00:20:02.503Z,73.91
2022-08-05T00:20:55.574Z,74.21
2022-08-05T00:21:55.588Z,74.51
2022-08-05T00:22:58.505Z,74.71
2022-08-05T00:24:09.991Z,74.85
2022-08-05T00:24:56.538Z,74.91
2022-08-05T00:25:55.523Z,74.91
2022-08-05T00:26:55.560Z,75.61
2022-08-05T00:27:55.502Z,75.41
2022-08-05T00:28:55.514Z,75.21
2022-08-05T00:29:56.379Z,75.51
2022-08-05T00:30:55.487Z,75.55
2022-08-05T00:32:12.883Z,75.85
2022-08-05T00:32:56.452Z,75.81
2022-08-05T00:34:56.408Z,75.65
2022-08-05T00:35:06.399Z,76.04
2022-08-05T00:36:15.067Z,76.04
2022-08-05T00:37:10.274Z,76.54
2022-08-05T00:37:56.411Z,76.45
2022-08-05T00:38:55.409Z,76.65
2022-08-05T00:39:58.850Z,76.75
2022-08-05T00:40:55.389Z,76.75
2022-08-05T00:41:55.909Z,77.04
2022-08-05T00:42:55.377Z,77.08
2022-08-05T00:43:55.336Z,77.28
2022-08-05T00:44:55.647Z,77.34
2022-08-05T00:45:55.321Z,77.38
2022-08-05T00:47:02.121Z,77.28
2022-08-05T00:48:05.151Z,77.58
2022-08-05T00:48:55.289Z,77.68
2022-08-05T00:49:55.281Z,77.58
2022-08-05T00:50:55.269Z,77.84
2022-08-05T00:51:55.272Z,78.08
2022-08-05T00:52:55.518Z,77.98
2022-08-05T00:54:02.171Z,78.18
2022-08-05T00:54:56.328Z,78.28
2022-08-05T00:55:55.209Z,78.88
2022-08-05T00:56:55.227Z,78.58
2022-08-05T00:57:58.674Z,78.78
2022-08-05T00:58:55.186Z,78.58
2022-08-05T00:59:55.183Z,78.72
2022-08-05T01:00:55.195Z,79.48
2022-08-05T01:01:55.253Z,79.32
2022-08-05T01:02:55.150Z,79.78
2022-08-05T01:03:55.139Z,80.02
2022-08-05T01:04:55.165Z,80.51
2022-08-05T01:05:55.196Z,81.21
2022-08-05T01:06:55.175Z,81.56
2022-08-05T01:08:40.575Z,83.35
2022-08-05T01:08:57.096Z,83.49
2022-08-05T01:09:55.303Z,83.59
2022-08-05T01:10:55.097Z,83.69
2022-08-05T01:11:55.108Z,84.39
2022-08-05T01:13:05.252Z,84.63
2022-08-05T01:13:57.616Z,84.93
2022-08-05T01:14:55.108Z,85.73
2022-08-05T01:15:55.119Z,85.83
2022-08-05T01:16:55.173Z,86.23
2022-08-05T01:17:55.113Z,85.83
2022-08-05T01:18:56.584Z,85.97
2022-08-05T01:20:01.339Z,86.03
2022-08-05T01:20:54.974Z,86.13
2022-08-05T01:21:55.037Z,86.68
2022-08-05T01:22:57.297Z,86.23
2022-08-05T01:23:55.016Z,86.47
2022-08-05T01:24:54.967Z,86.57
2022-08-05T01:25:55.035Z,86.57
2022-08-05T01:26:55.073Z,86.07
2022-08-05T01:27:54.905Z,86.27
2022-08-05T01:28:54.899Z,86.47
2022-08-05T01:29:54.888Z,85.87
2022-08-05T01:30:55.326Z,85.87
2022-08-05T01:31:54.881Z,86.03
2022-08-05T01:32:54.859Z,85.47
2022-08-05T01:33:55.389Z,85.07
2022-08-05T01:34:54.835Z,85.07
2022-08-05T01:35:54.835Z,84.97
2022-08-05T01:36:54.825Z,84.83
2022-08-05T01:37:54.804Z,84.83
2022-08-05T01:38:54.828Z,84.87
2022-08-05T01:39:54.984Z,84.93
2022-08-05T01:40:54.767Z,83.97
2022-08-05T01:41:54.780Z,84.97
2022-08-05T01:42:54.766Z,84.57
2022-08-05T01:43:54.745Z,84.47
2022-08-05T01:44:54.821Z,84.23
2022-08-05T01:45:56.279Z,84.23
2022-08-05T01:46:54.732Z,84.13
2022-08-05T01:47:54.701Z,83.53
2022-08-05T01:48:54.695Z,83.53
2022-08-05T01:50:02.106Z,83.93
2022-08-05T01:50:55.677Z,83.43
2022-08-05T01:51:54.694Z,83.03
2022-08-05T01:52:54.650Z,83.13
2022-08-05T01:53:58.753Z,83.23
2022-08-05T01:54:54.634Z,81.73
2022-08-05T01:55:54.613Z,81.83
2022-08-05T01:58:10.466Z,81.83
2022-08-05T01:58:29.847Z,82.43
2022-08-05T01:58:55.591Z,83.43
2022-08-05T01:59:54.583Z,84.43
2022-08-05T02:00:54.570Z,85.43
2022-08-05T02:01:55.513Z,86.57
2022-08-05T02:02:55.042Z,87.77
2022-08-05T02:03:54.543Z,88.92
2022-08-05T02:04:54.535Z,88.52
2022-08-05T02:05:59.731Z,90.56
2022-08-05T02:06:55.547Z,90.16
2022-08-05T02:08:00.242Z,91.86
2022-08-05T02:08:58.862Z,92.11
2022-08-05T02:09:54.481Z,91.71
2022-08-05T02:10:54.470Z,91.61
2022-08-05T02:11:54.464Z,91.71
2022-08-05T02:12:54.461Z,91.61
2022-08-05T02:13:54.465Z,91.71
2022-08-05T02:14:54.425Z,92.05
2022-08-05T02:15:54.417Z,91.81
2022-08-05T02:16:54.425Z,92.21
2022-08-05T02:18:30.924Z,92.71
2022-08-05T02:18:55.398Z,92.76
2022-08-05T02:19:54.374Z,93.26
2022-08-05T02:20:54.363Z,93.30
2022-08-05T02:21:54.374Z,93.30
2022-08-05T02:22:54.361Z,93.40
2022-08-05T02:23:54.331Z,94.20
2022-08-05T02:24:54.323Z,94.31
2022-08-05T02:25:54.320Z,94.40
2022-08-05T02:26:54.846Z,94.51
2022-08-05T02:27:58.455Z,94.31
2022-08-05T02:28:54.297Z,94.60
2022-08-05T02:29:59.522Z,94.51
2022-08-05T02:30:56.639Z,94.51
2022-08-05T02:31:54.265Z,94.51
2022-08-05T02:32:54.242Z,94.71
2022-08-05T02:33:57.251Z,94.71
2022-08-05T02:34:54.897Z,94.56
2022-08-05T02:35:56.305Z,94.86
2022-08-05T02:36:54.215Z,95.06
2022-08-05T02:37:54.281Z,94.66
2022-08-05T02:38:54.193Z,94.76
2022-08-05T02:39:54.228Z,95.16
2022-08-05T02:40:54.161Z,95.16
2022-08-05T02:42:00.916Z,95.21
2022-08-05T02:42:55.175Z,95.26
2022-08-05T02:44:02.443Z,94.66
2022-08-05T02:44:55.198Z,94.46
2022-08-05T02:45:54.181Z,95.36
2022-08-05T02:46:59.962Z,95.31
2022-08-05T02:48:12.059Z,95.51
2022-08-05T02:48:55.163Z,95.55
2022-08-05T02:49:54.071Z,95.61
2022-08-05T02:50:54.076Z,95.86
2022-08-05T02:52:03.556Z,95.55
2022-08-05T02:52:55.064Z,95.60
2022-08-05T02:53:54.861Z,95.36
2022-08-05T02:54:54.023Z,95.65
2022-08-05T02:55:59.973Z,95.70
2022-08-05T02:56:54.021Z,95.80
2022-08-05T02:58:10.788Z,95.60
2022-08-05T02:58:54.975Z,95.50
2022-08-05T02:59:53.981Z,95.90
2022-08-05T03:00:53.989Z,96.00
2022-08-05T03:01:54.013Z,95.86
2022-08-05T03:02:53.950Z,96.20
2022-08-05T03:04:03.133Z,96.41
2022-08-05T03:04:54.923Z,96.60
2022-08-05T03:06:53.941Z,96.91
2022-08-05T03:06:59.394Z,97.20
2022-08-05T03:08:04.510Z,97.00
2022-08-05T03:08:54.867Z,97.00
2022-08-05T03:09:53.865Z,96.60
2022-08-05T03:11:53.659Z,96.41
2022-08-05T03:11:58.242Z,97.50
2022-08-05T03:12:53.855Z,97.41
2022-08-05T03:14:02.834Z,97.31
2022-08-05T03:14:54.823Z,97.00
2022-08-05T03:15:53.839Z,96.60
2022-08-05T03:16:53.802Z,97.11
2022-08-05T03:17:54.268Z,97.11
2022-08-05T03:18:53.790Z,96.70
2022-08-05T03:19:53.772Z,97.31
2022-08-05T03:20:53.764Z,96.70
2022-08-05T03:21:53.757Z,97.11
2022-08-05T03:22:55.276Z,97.00
2022-08-05T03:23:53.730Z,96.91
2022-08-05T03:24:53.720Z,97.00
2022-08-05T03:26:03.833Z,97.00
2022-08-05T03:26:54.699Z,97.20
2022-08-05T03:27:59.370Z,96.91
2022-08-05T03:28:54.679Z,97.31
2022-08-05T03:30:08.083Z,97.36
2022-08-05T03:30:54.653Z,97.36
2022-08-05T03:31:57.087Z,96.20
2022-08-05T03:32:54.670Z,96.20
2022-08-05T03:33:53.623Z,95.60
2022-08-05T03:34:53.657Z,95.90
2022-08-05T03:35:53.610Z,96.50
2022-08-05T03:36:53.588Z,96.50
2022-08-05T03:37:53.617Z,96.91
2022-08-05T03:38:53.578Z,97.75
2022-08-05T03:39:59.258Z,97.31
2022-08-05T03:40:55.642Z,97.55
2022-08-05T03:41:53.543Z,97.96
2022-08-05T03:42:53.558Z,97.96
2022-08-05T03:44:08.167Z,97.85
2022-08-05T03:44:54.519Z,98.66
2022-08-05T03:45:58.264Z,98.86
2022-08-05T03:46:54.498Z,98.76
2022-08-05T03:47:57.175Z,98.66
2022-08-05T03:48:53.482Z,98.56
2022-08-05T03:49:53.469Z,98.56
2022-08-05T03:50:53.456Z,98.56
2022-08-05T03:52:50.386Z,98.46
2022-08-05T03:55:00.516Z,98.66
2022-08-05T03:55:34.663Z,98.56
2022-08-05T03:55:52.078Z,98.66
2022-08-05T03:56:11.574Z,98.76
2022-08-05T03:56:55.390Z,98.86
2022-08-05T03:57:53.479Z,98.56
2022-08-05T03:58:53.362Z,99.06
2022-08-05T03:59:54.691Z,98.86
2022-08-05T04:00:53.352Z,99.06
2022-08-05T04:01:53.437Z,98.86
2022-08-05T04:02:59.022Z,98.86
2022-08-05T04:04:05.382Z,98.96
2022-08-05T04:04:54.315Z,98.86
2022-08-05T04:05:53.300Z,98.96
2022-08-05T04:06:53.281Z,99.16
2022-08-05T04:07:58.483Z,98.96
2022-08-05T04:08:54.282Z,98.86
2022-08-05T04:09:53.970Z,99.06
2022-08-05T04:10:53.249Z,98.96
2022-08-05T04:11:53.246Z,98.96
2022-08-05T04:12:53.260Z,98.96
2022-08-05T04:13:53.590Z,98.96
2022-08-05T04:14:53.203Z,99.06
2022-08-05T04:16:04.570Z,98.96
2022-08-05T04:16:54.219Z,99.06
2022-08-05T04:17:56.266Z,98.81
2022-08-05T04:18:54.124Z,99.06
2022-08-05T04:19:54.461Z,98.71
2022-08-05T04:20:54.152Z,98.76
2022-08-05T04:22:08.319Z,98.51
2022-08-05T04:22:54.123Z,98.61
2022-08-05T04:24:04.738Z,99.21
2022-08-05T04:24:54.106Z,98.51
2022-08-05T04:26:00.686Z,98.21
2022-08-05T04:26:53.082Z,98.81
2022-08-05T04:27:58.167Z,98.41
2022-08-05T04:28:54.068Z,98.81
2022-08-05T04:29:53.068Z,98.41
2022-08-05T04:30:53.049Z,98.51
2022-08-05T04:31:53.043Z,98.61
2022-08-05T04:32:53.068Z,98.46
2022-08-05T04:34:19.158Z,98.51
2022-08-05T04:34:57.634Z,98.36
2022-08-05T04:36:11.237Z,98.71
2022-08-05T04:36:54.003Z,98.66
2022-08-05T04:38:02.679Z,98.07
2022-08-05T04:38:54.010Z,98.57
2022-08-05T04:39:53.100Z,98.57
2022-08-05T04:40:52.941Z,98.16
2022-08-05T04:41:52.942Z,98.46
2022-08-05T04:42:52.938Z,98.57
2022-08-05T04:43:53.037Z,98.57
2022-08-05T04:44:52.918Z,98.57
2022-08-05T04:45:54.960Z,98.52
2022-08-05T04:46:52.882Z,98.86
2022-08-05T04:47:52.912Z,98.16
2022-08-05T04:48:52.871Z,97.76
2022-08-05T04:50:01.879Z,97.66
2022-08-05T04:51:02.537Z,97.96
2022-08-05T04:52:00.419Z,97.76
2022-08-05T04:52:53.851Z,98.02
2022-08-05T04:53:52.846Z,97.96
2022-08-05T04:54:52.803Z,97.81
2022-08-05T04:56:15.455Z,97.72
2022-08-05T04:56:58.735Z,97.81
2022-08-05T04:57:54.234Z,97.81
2022-08-05T04:58:52.762Z,97.72
2022-08-05T04:59:53.778Z,97.81
2022-08-05T05:00:52.793Z,97.47
2022-08-05T05:02:07.208Z,97.67
2022-08-05T05:02:53.799Z,97.57
2022-08-05T05:03:52.748Z,97.06
2022-08-05T05:04:52.715Z,97.27
2022-08-05T05:06:39.995Z,97.87
2022-08-05T05:06:57.755Z,96.97
2022-08-05T05:07:52.829Z,97.47
2022-08-05T05:08:52.670Z,97.17
2022-08-05T05:09:52.661Z,97.37
2022-08-05T05:10:52.644Z,97.27
2022-08-05T05:11:54.432Z,97.22
2022-08-05T05:12:52.645Z,97.06
2022-08-05T05:13:52.636Z,96.77
2022-08-05T05:14:52.606Z,97.12
2022-08-05T05:15:57.031Z,97.32
2022-08-05T05:16:53.597Z,96.72
2022-08-05T05:17:56.263Z,96.52
2022-08-05T05:19:17.823Z,96.52
2022-08-05T05:19:54.564Z,96.92
2022-08-05T05:20:52.548Z,96.97
2022-08-05T05:21:55.582Z,97.12
2022-08-05T05:22:52.540Z,96.72
2022-08-05T05:24:02.755Z,96.47
2022-08-05T05:24:57.429Z,96.27
2022-08-05T05:25:53.504Z,96.58
2022-08-05T05:26:52.511Z,96.97
2022-08-05T05:27:53.920Z,96.88
2022-08-05T05:28:52.472Z,97.17
2022-08-05T05:30:04.453Z,97.17
2022-08-05T05:30:53.449Z,96.97
2022-08-05T05:31:52.443Z,96.47
2022-08-05T05:32:52.441Z,96.08
2022-08-05T05:33:59.385Z,96.02
2022-08-05T05:34:52.596Z,96.17
2022-08-05T05:35:52.401Z,95.87
2022-08-05T05:36:52.428Z,95.97
2022-08-05T05:38:00.122Z,96.37
2022-08-05T05:38:52.367Z,95.73
2022-08-05T05:39:52.447Z,96.17
2022-08-05T05:40:52.356Z,95.53
2022-08-05T05:41:54.539Z,95.62
2022-08-05T05:42:52.363Z,95.43
2022-08-05T05:43:58.635Z,94.73
2022-08-05T05:44:53.308Z,95.07
2022-08-05T05:45:53.309Z,95.17
2022-08-05T05:46:52.306Z,95.17
2022-08-05T05:48:06.968Z,94.87
2022-08-05T05:48:53.274Z,94.73
2022-08-05T05:49:56.615Z,95.23
2022-08-05T05:50:52.251Z,94.98
2022-08-05T05:51:52.233Z,95.12
2022-08-05T05:52:52.247Z,95.18
2022-08-05T05:53:58.058Z,94.78
2022-08-05T05:54:53.213Z,94.73
2022-08-05T05:56:00.980Z,94.88
2022-08-05T05:56:53.200Z,94.48
2022-08-05T05:57:53.178Z,94.58
2022-08-05T05:58:52.171Z,94.18
2022-08-05T05:59:52.459Z,94.43
2022-08-05T06:00:52.160Z,94.32
2022-08-05T06:01:57.339Z,94.48
2022-08-05T06:02:52.162Z,94.48
2022-08-05T06:04:01.366Z,94.28
2022-08-05T06:04:53.169Z,94.28
2022-08-05T06:05:54.237Z,94.38
2022-08-05T06:06:52.105Z,94.38
2022-08-05T06:08:01.193Z,94.28
2022-08-05T06:08:53.081Z,94.32
2022-08-05T06:10:01.368Z,94.27
2022-08-05T06:10:54.055Z,94.62
2022-08-05T06:11:59.390Z,94.87
2022-08-05T06:12:53.043Z,94.97
2022-08-05T06:13:54.132Z,94.37
2022-08-05T06:14:52.020Z,94.51
2022-08-05T06:16:30.596Z,94.47
2022-08-05T06:16:52.991Z,94.47
2022-08-05T06:17:52.707Z,95.07
2022-08-05T06:18:53.549Z,95.07
2022-08-05T06:19:57.231Z,94.97
2022-08-05T06:20:54.167Z,94.57
2022-08-05T06:21:51.939Z,94.37
2022-08-05T06:22:51.948Z,94.77
2022-08-05T06:23:51.924Z,94.97
2022-08-05T06:24:51.913Z,94.47
2022-08-05T06:26:12.813Z,94.32
2022-08-05T06:26:53.243Z,94.82
2022-08-05T06:28:09.116Z,94.23
2022-08-05T06:28:52.877Z,94.23
2022-08-05T06:30:05.896Z,94.12
2022-08-05T06:30:53.843Z,93.82
2022-08-05T06:31:51.871Z,94.23
2022-08-05T06:32:51.846Z,94.32
2022-08-05T06:34:07.194Z,94.02
2022-08-05T06:34:53.424Z,93.93
2022-08-05T06:36:07.802Z,94.18
2022-08-05T06:36:57.414Z,93.88
2022-08-05T06:37:57.728Z,93.88
2022-08-05T06:38:51.782Z,93.98
2022-08-05T06:39:51.771Z,93.63
2022-08-05T06:40:51.759Z,93.74
2022-08-05T06:41:51.752Z,93.93
2022-08-05T06:42:52.779Z,94.04
2022-08-05T06:44:00.176Z,93.54
2022-08-05T06:44:52.712Z,93.04
2022-08-05T06:46:06.785Z,92.83
2022-08-05T06:46:52.686Z,92.74
2022-08-05T06:48:35.893Z,92.54
2022-08-05T06:48:56.677Z,91.93
2022-08-05T06:50:00.269Z,92.24
2022-08-05T06:50:51.650Z,92.63
2022-08-05T06:51:51.647Z,92.08
2022-08-05T06:53:03.996Z,92.58
2022-08-05T06:53:53.478Z,91.93
2022-08-05T06:54:52.152Z,92.48
2022-08-05T06:55:51.609Z,92.13
2022-08-05T06:56:54.881Z,91.83
2022-08-05T06:57:57.760Z,91.74
2022-08-05T06:58:52.573Z,91.74
2022-08-05T06:59:56.417Z,91.44
2022-08-05T07:00:53.574Z,91.74
2022-08-05T07:01:53.050Z,91.74
2022-08-05T07:02:53.526Z,91.74
2022-08-05T07:03:51.530Z,91.83
2022-08-05T07:04:51.512Z,91.74
2022-08-05T07:05:51.515Z,91.24
2022-08-05T07:06:51.491Z,91.74
2022-08-05T07:07:51.502Z,91.63
2022-08-05T07:08:54.512Z,91.44
2022-08-05T07:09:58.143Z,91.59
2022-08-05T07:10:52.579Z,91.79
2022-08-05T07:11:51.851Z,91.69
2022-08-05T07:12:51.455Z,90.79
2022-08-05T07:13:57.711Z,90.59
2022-08-05T07:14:51.417Z,90.59
2022-08-05T07:16:02.029Z,90.15
2022-08-05T07:17:59.255Z,90.05
2022-08-05T07:18:00.755Z,90.25
2022-08-05T07:18:52.401Z,89.95
2022-08-05T07:20:31.514Z,89.55
2022-08-05T07:20:53.362Z,89.35
2022-08-05T07:22:01.083Z,90.35
2022-08-05T07:22:52.373Z,89.25
2022-08-05T07:23:52.370Z,88.65
2022-08-05T07:24:52.640Z,88.95
2022-08-05T07:25:54.655Z,88.05
2022-08-05T07:26:51.304Z,88.25
2022-08-05T07:27:57.566Z,88.55
2022-08-05T07:28:52.273Z,88.59
2022-08-05T07:30:28.171Z,88.69
2022-08-05T07:30:54.008Z,88.79
2022-08-05T07:31:55.113Z,88.49
2022-08-05T07:32:53.521Z,88.29
2022-08-05T07:33:51.225Z,88.35
2022-08-05T07:34:51.204Z,87.95
2022-08-05T07:36:02.309Z,88.35
2022-08-05T07:36:52.192Z,87.85
2022-08-05T07:37:51.205Z,88.25
2022-08-05T07:38:54.872Z,88.10
2022-08-05T07:40:04.529Z,88.15
2022-08-05T07:40:55.681Z,88.45
2022-08-05T07:42:12.893Z,87.91
2022-08-05T07:42:52.155Z,88.31
2022-08-05T07:43:51.122Z,88.40
2022-08-05T07:44:51.111Z,87.66
2022-08-05T07:45:57.163Z,87.66
2022-08-05T07:46:51.080Z,87.76
2022-08-05T07:47:51.100Z,86.66
2022-08-05T07:49:04.410Z,85.87
2022-08-05T07:49:54.342Z,86.11
2022-08-05T07:50:51.046Z,86.75
2022-08-05T07:52:23.842Z,87.05
2022-08-05T07:52:51.049Z,87.30
2022-08-05T07:53:51.637Z,87.07
2022-08-05T07:54:51.011Z,86.77
2022-08-05T07:56:06.445Z,85.67
2022-08-05T07:57:13.712Z,85.67
2022-08-05T07:57:58.712Z,85.77
2022-08-05T07:58:58.616Z,85.97
2022-08-05T07:59:51.959Z,85.47
2022-08-05T08:00:50.981Z,85.53
2022-08-05T08:01:52.095Z,85.28
2022-08-05T08:03:14.984Z,84.55
2022-08-05T08:03:51.923Z,83.85
2022-08-05T08:04:50.908Z,83.31
2022-08-05T08:05:50.890Z,82.71
2022-08-05T08:06:51.303Z,81.22
2022-08-05T08:08:00.038Z,81.22
2022-08-05T08:08:51.866Z,80.22
2022-08-05T08:09:52.286Z,80.96
2022-08-05T08:10:50.845Z,81.99
2022-08-05T08:11:54.273Z,83.13
2022-08-05T08:12:51.841Z,84.63
2022-08-05T08:14:00.856Z,84.03
2022-08-05T08:14:51.815Z,84.87
2022-08-05T08:16:49.794Z,84.63
2022-08-05T08:16:53.521Z,84.57
2022-08-05T08:17:53.141Z,85.47
2022-08-05T08:18:50.761Z,85.97
2022-08-05T08:20:22.026Z,86.07
2022-08-05T08:21:02.694Z,86.41
2022-08-05T08:21:51.730Z,87.35
2022-08-05T08:22:50.735Z,87.65
2022-08-05T08:24:01.043Z,88.45
2022-08-05T08:24:52.156Z,88.79
2022-08-05T08:26:00.740Z,89.29
2022-08-05T08:26:52.425Z,89.94
2022-08-05T08:27:51.187Z,90.44
2022-08-05T08:28:59.563Z,90.03
2022-08-05T08:30:05.450Z,90.44
2022-08-05T08:30:51.636Z,90.13
2022-08-05T08:31:50.633Z,89.73
2022-08-05T08:32:50.624Z,89.49
2022-08-05T08:33:51.666Z,88.69
2022-08-05T08:34:50.598Z,88.35
2022-08-05T08:35:52.691Z,88.35
2022-08-05T08:36:55.712Z,88.45
2022-08-05T08:37:51.827Z,88.31
2022-08-05T08:38:53.438Z,88.26
2022-08-05T08:39:50.636Z,87.46
2022-08-05T08:40:51.787Z,86.87
2022-08-05T08:42:00.160Z,86.71
2022-08-05T08:42:52.733Z,87.01
2022-08-05T08:45:18.465Z,86.66
2022-08-05T08:45:19.857Z,87.01
2022-08-05T08:45:51.502Z,87.16
2022-08-05T08:46:50.483Z,86.97
2022-08-05T08:48:07.319Z,87.16
2022-08-05T08:49:07.692Z,86.72
2022-08-05T08:50:05.720Z,86.19
2022-08-05T08:51:04.161Z,85.25
2022-08-05T08:52:03.798Z,85.11
2022-08-05T08:52:53.021Z,83.77
2022-08-05T08:53:50.411Z,82.93
2022-08-05T08:54:50.404Z,83.07
2022-08-05T08:56:03.383Z,81.08
2022-08-05T08:56:51.382Z,80.88
2022-08-05T08:57:58.237Z,80.44
2022-08-05T08:58:50.486Z,80.41
2022-08-05T08:59:50.355Z,80.66
2022-08-05T09:00:50.379Z,79.27
2022-08-05T09:01:57.115Z,79.27
2022-08-05T09:02:50.324Z,77.94
2022-08-05T09:03:54.485Z,77.75
2022-08-05T09:05:16.786Z,76.98
2022-08-05T09:06:08.809Z,77.05
2022-08-05T09:06:51.278Z,76.12
2022-08-05T09:07:57.118Z,76.51
2022-08-05T09:08:51.293Z,76.21
2022-08-05T09:09:50.265Z,77.51
2022-08-05T09:10:50.242Z,77.21
2022-08-05T09:11:53.819Z,77.41
2022-08-05T09:12:51.019Z,76.97
2022-08-05T09:14:09.702Z,76.87
2022-08-05T09:14:57.859Z,76.72
2022-08-05T09:15:51.200Z,76.42
2022-08-05T09:16:50.192Z,76.72
2022-08-05T09:17:50.169Z,76.57
2022-08-05T09:18:50.181Z,76.28
2022-08-05T09:19:55.023Z,76.21
2022-08-05T09:20:51.189Z,76.78
2022-08-05T09:22:30.915Z,76.48
2022-08-05T09:22:51.982Z,76.28
2022-08-05T09:23:50.131Z,76.12
2022-08-05T09:24:50.114Z,76.21
2022-08-05T09:26:01.558Z,76.12
2022-08-05T09:26:51.766Z,76.45
2022-08-05T09:28:04.307Z,76.19
2022-08-05T09:28:51.065Z,77.12
2022-08-05T09:29:51.061Z,78.02
2022-08-05T09:30:50.061Z,79.49
2022-08-05T09:32:40.886Z,79.99
2022-08-05T09:32:52.798Z,80.38
2022-08-05T09:33:50.797Z,80.24
2022-08-05T09:34:50.009Z,79.25
2022-08-05T09:35:50.002Z,79.45
2022-08-05T09:36:55.945Z,78.81
2022-08-05T09:38:16.341Z,78.58
2022-08-05T09:38:50.989Z,77.88
2022-08-05T09:39:52.386Z,76.55
2022-08-05T09:40:52.278Z,76.91
2022-08-05T09:41:55.455Z,76.32
2022-08-05T09:42:50.936Z,76.48
2022-08-05T09:43:49.937Z,75.78
2022-08-05T09:44:50.519Z,75.38
2022-08-05T09:46:07.397Z,75.25
2022-08-05T09:46:53.490Z,74.95
2022-08-05T09:47:56.072Z,74.85
2022-08-05T09:48:50.898Z,73.86
2022-08-05T09:50:00.656Z,75.15
2022-08-05T09:50:50.854Z,74.46
2022-08-05T09:51:50.403Z,73.96
2022-08-05T09:52:52.996Z,74.46
2022-08-05T09:53:54.086Z,74.76
2022-08-05T09:54:49.820Z,75.01
2022-08-05T09:55:58.137Z,74.52
2022-08-05T09:56:52.315Z,74.22
2022-08-05T09:57:49.791Z,74.91
2022-08-05T09:58:50.800Z,75.25
2022-08-05T09:59:49.771Z,73.76
2022-08-05T10:00:49.759Z,73.72
2022-08-05T10:01:57.905Z,73.03
2022-08-05T10:02:50.767Z,73.59
2022-08-05T10:03:59.124Z,72.80
2022-08-05T10:04:50.717Z,71.81
2022-08-05T10:05:49.716Z,71.57
2022-08-05T10:06:54.837Z,71.08
2022-08-05T10:08:10.975Z,71.67
2022-08-05T10:08:55.358Z,71.04
2022-08-05T10:09:50.671Z,70.05
2022-08-05T10:10:54.296Z,69.76
2022-08-05T10:11:49.658Z,69.85
2022-08-05T10:12:50.457Z,70.21
2022-08-05T10:13:49.675Z,69.62
2022-08-05T10:14:50.627Z,69.72
2022-08-05T10:15:49.620Z,69.65
2022-08-05T10:16:53.089Z,69.16
2022-08-05T10:17:56.846Z,69.56
2022-08-05T10:18:50.607Z,68.57
2022-08-05T10:20:04.181Z,68.10
2022-08-05T10:20:50.581Z,69.13
2022-08-05T10:21:49.571Z,69.62
2022-08-05T10:22:51.088Z,69.59
2022-08-05T10:23:59.645Z,68.50
2022-08-05T10:24:50.650Z,67.61
2022-08-05T10:25:49.532Z,68.13
2022-08-05T10:26:51.429Z,68.93
2022-08-05T10:28:12.750Z,69.65
2022-08-05T10:28:50.632Z,69.36
2022-08-05T10:30:06.967Z,70.02
2022-08-05T10:32:49.411Z,68.43
2022-08-05T10:32:52.807Z,68.33
2022-08-05T10:33:00.076Z,69.13
2022-08-05T10:33:52.272Z,68.43
2022-08-05T10:34:49.439Z,68.33
2022-08-05T10:35:59.023Z,68.07
2022-08-05T10:36:51.418Z,69.36
2022-08-05T10:37:49.413Z,68.37
2022-08-05T10:38:49.427Z,67.87
2022-08-05T10:40:03.254Z,67.94
2022-08-05T10:40:50.774Z,68.13
2022-08-05T10:41:49.379Z,67.61
2022-08-05T10:42:49.359Z,67.51
2022-08-05T10:43:49.365Z,67.31
2022-08-05T10:44:49.348Z,66.95
2022-08-05T10:45:49.339Z,70.22
2022-08-05T10:46:50.554Z,70.48
2022-08-05T10:47:56.193Z,69.16
2022-08-05T10:48:57.356Z,68.07
2022-08-05T10:50:36.325Z,66.95
2022-08-05T10:50:50.293Z,66.06
2022-08-05T10:51:59.709Z,66.35
2022-08-05T10:52:50.268Z,66.16
2022-08-05T10:53:49.268Z,65.23
2022-08-05T10:54:56.456Z,65.23
2022-08-05T10:56:03.833Z,65.43
2022-08-05T10:56:52.780Z,65.95
2022-08-05T10:57:51.393Z,65.43
2022-08-05T10:58:50.542Z,65.23
2022-08-05T11:00:02.640Z,66.02
2022-08-05T11:00:54.904Z,65.70
2022-08-05T11:01:54.858Z,65.20
2022-08-05T11:02:50.642Z,64.74
2022-08-05T11:03:49.200Z,65.33
2022-08-05T11:04:49.187Z,65.13
2022-08-05T11:05:49.132Z,65.53
2022-08-05T11:06:49.122Z,65.73
2022-08-05T11:08:03.014Z,65.30
2022-08-05T11:08:50.116Z,65.00
2022-08-05T11:09:49.091Z,65.63
2022-08-05T11:10:50.289Z,65.40
2022-08-05T11:11:53.013Z,65.86
2022-08-05T11:12:54.449Z,67.38
2022-08-05T11:13:54.728Z,67.68
2022-08-05T11:15:01.463Z,66.98
2022-08-05T11:16:00.688Z,66.95
2022-08-05T11:16:57.714Z,66.52
2022-08-05T11:17:57.369Z,66.22
2022-08-05T11:18:51.714Z,65.99
2022-08-05T11:20:10.251Z,66.58
2022-08-05T11:20:49.983Z,67.47
2022-08-05T11:21:49.753Z,66.32
2022-08-05T11:22:50.109Z,67.44
2022-08-05T11:24:04.033Z,68.76
2022-08-05T11:24:50.636Z,70.65
2022-08-05T11:26:04.964Z,70.22
2022-08-05T11:26:49.961Z,69.20
2022-08-05T11:27:51.954Z,67.97
2022-08-05T11:28:49.912Z,68.20
2022-08-05T11:29:48.881Z,68.43
2022-08-05T11:30:48.877Z,68.76
2022-08-05T11:31:57.453Z,68.46
2022-08-05T11:32:50.861Z,69.85
2022-08-05T11:33:48.858Z,71.51
2022-08-05T11:34:54.050Z,73.84
2022-08-05T11:36:08.341Z,76.57
2022-08-05T11:36:52.835Z,78.50
2022-08-05T11:38:29.411Z,78.74
2022-08-05T11:38:51.263Z,80.08
2022-08-05T11:39:48.855Z,79.28
2022-08-05T11:40:48.779Z,80.71
2022-08-05T11:42:02.030Z,81.01
2022-08-05T11:42:49.765Z,80.82
2022-08-05T11:44:06.417Z,80.69
2022-08-05T11:44:53.839Z,82.03
2022-08-05T11:46:27.501Z,83.23
2022-08-05T11:47:09.996Z,82.29
2022-08-05T11:47:50.533Z,82.19
2022-08-05T11:48:49.714Z,81.83
2022-08-05T11:49:51.189Z,83.13
2022-08-05T11:50:48.677Z,81.93
2022-08-05T11:51:49.432Z,81.93
2022-08-05T11:52:51.093Z,82.03
2022-08-05T11:53:48.658Z,81.93
2022-08-05T11:54:54.759Z,82.43
2022-08-05T11:55:49.635Z,81.93
2022-08-05T11:56:50.067Z,82.13
2022-08-05T11:58:09.710Z,81.53
2022-08-05T11:58:53.042Z,81.99
2022-08-05T11:59:50.672Z,82.19
2022-08-05T12:00:52.829Z,81.73
2022-08-05T12:01:49.562Z,81.33
2022-08-05T12:02:48.575Z,81.83
2022-08-05T12:03:55.777Z,81.79
2022-08-05T12:04:59.016Z,80.63
2022-08-05T12:05:49.530Z,81.43
2022-08-05T12:06:48.983Z,81.09
2022-08-05T12:08:07.233Z,81.13
2022-08-05T12:08:51.093Z,80.93
2022-08-05T12:09:53.358Z,80.13
2022-08-05T12:10:48.705Z,80.53
2022-08-05T12:11:48.463Z,80.43
2022-08-05T12:12:59.261Z,80.73
2022-08-05T12:13:50.110Z,79.63
2022-08-05T12:14:49.441Z,79.83
2022-08-05T12:15:50.278Z,80.53
2022-08-05T12:16:49.411Z,80.43
2022-08-05T12:18:03.651Z,80.23
2022-08-05T12:18:53.094Z,80.03
2022-08-05T12:20:25.444Z,80.73
2022-08-05T12:20:49.429Z,80.43
2022-08-05T12:21:48.365Z,81.27
2022-08-05T12:22:48.348Z,81.17
2022-08-05T12:23:48.367Z,80.91
2022-08-05T12:24:49.391Z,80.97
2022-08-05T12:25:48.326Z,80.87
2022-08-05T12:26:48.313Z,81.07
2022-08-05T12:27:53.314Z,81.11
2022-08-05T12:28:49.311Z,80.77
2022-08-05T12:29:56.862Z,81.67
2022-08-05T12:30:48.274Z,81.95
2022-08-05T12:31:53.204Z,82.35
2022-08-05T12:32:50.325Z,82.39
2022-08-05T12:33:48.228Z,83.39
2022-08-05T12:34:48.248Z,83.97
2022-08-05T12:35:48.273Z,84.47
2022-08-05T12:36:48.209Z,85.22
2022-08-05T12:37:48.303Z,85.22
2022-08-05T12:38:48.190Z,85.82
2022-08-05T12:39:48.614Z,84.97
2022-08-05T12:40:48.169Z,85.38
2022-08-05T12:41:48.624Z,84.61
2022-08-05T12:42:48.832Z,85.22
2022-08-05T12:43:48.137Z,85.72
2022-08-05T12:44:48.137Z,85.36
2022-08-05T12:45:48.215Z,86.06
2022-08-05T12:46:48.125Z,86.46
2022-08-05T12:48:17.240Z,86.62
2022-08-05T12:48:49.112Z,86.62
2022-08-05T12:50:03.629Z,86.06
2022-08-05T12:50:49.087Z,86.26
2022-08-05T12:52:13.901Z,86.60
2022-08-05T12:52:49.066Z,86.60